createdAt,value
2023-03-12T00:01:43.175Z,100518.00
2023-03-12T00:04:09.965Z,100526.00
2023-03-12T00:06:37.379Z,100522.00
2023-03-12T00:09:04.681Z,100515.00
2023-03-12T00:11:31.505Z,100531.00
2023-03-12T00:14:00.070Z,100536.00
2023-03-12T00:16:27.491Z,100529.00
2023-03-12T00:18:55.269Z,100522.00
2023-03-12T00:21:22.972Z,100524.00
2023-03-12T00:23:50.398Z,100524.00
2023-03-12T00:26:17.609Z,100529.00
2023-03-12T00:28:44.617Z,100532.00
2023-03-12T00:31:18.640Z,100533.00
2023-03-12T00:33:45.916Z,100526.00
2023-03-12T00:36:12.735Z,100523.00
2023-03-12T00:38:39.489Z,100534.00
2023-03-12T00:41:06.272Z,100537.00
2023-03-12T00:43:33.052Z,100538.00
2023-03-12T00:45:59.784Z,100535.00
2023-03-12T00:48:26.536Z,100532.00
2023-03-12T00:50:53.389Z,100546.00
2023-03-12T00:53:20.167Z,100535.00
2023-03-12T00:55:46.931Z,100542.00
2023-03-12T00:58:13.716Z,100539.00
2023-03-12T01:00:40.622Z,100532.00
2023-03-12T01:03:07.480Z,100544.00
2023-03-12T01:05:37.720Z,100536.00
2023-03-12T01:08:05.199Z,100541.00
2023-03-12T01:10:31.935Z,100534.00
2023-03-12T01:12:58.855Z,100531.00
2023-03-12T01:15:25.707Z,100541.00
2023-03-12T01:17:52.441Z,100544.00
2023-03-12T01:20:19.477Z,100533.00
2023-03-12T01:22:46.244Z,100545.00
2023-03-12T01:25:13.092Z,100557.00
2023-03-12T01:27:39.850Z,100541.00
2023-03-12T01:30:07.501Z,100538.00
2023-03-12T01:32:34.325Z,100542.00
2023-03-12T01:35:01.409Z,100556.00
2023-03-12T01:37:28.935Z,100549.00
2023-03-12T01:39:55.742Z,100547.00
2023-03-12T01:42:22.508Z,100542.00
2023-03-12T01:44:54.578Z,100540.00
2023-03-12T01:47:21.525Z,100544.00
2023-03-12T01:49:49.860Z,100548.00
2023-03-12T01:52:21.971Z,100542.00
2023-03-12T01:55:01.047Z,100548.00
2023-03-12T01:57:34.426Z,100536.00
2023-03-12T02:00:11.993Z,100540.00
2023-03-12T02:02:38.866Z,100540.00
2023-03-12T02:05:27.098Z,100548.00
2023-03-12T02:07:54.897Z,100550.00
2023-03-12T02:10:22.529Z,100530.00
2023-03-12T02:12:49.322Z,100544.00
2023-03-12T02:15:16.250Z,100535.00
2023-03-12T02:17:43.082Z,100551.00
2023-03-12T02:20:31.929Z,100553.00
2023-03-12T02:23:12.903Z,100537.00
2023-03-12T02:25:46.614Z,100553.00
2023-03-12T02:28:15.442Z,100540.00
2023-03-12T02:30:46.052Z,100540.00
2023-03-12T02:33:13.141Z,100545.00
2023-03-12T02:35:39.956Z,100548.00
2023-03-12T02:38:25.636Z,100542.00
2023-03-12T02:40:53.068Z,100556.00
2023-03-12T02:43:21.607Z,100545.00
2023-03-12T02:45:48.465Z,100547.00
2023-03-12T02:48:15.256Z,100546.00
2023-03-12T02:50:42.682Z,100544.00
2023-03-12T02:53:09.412Z,100544.00
2023-03-12T02:55:36.239Z,100539.00
2023-03-12T02:58:03.065Z,100551.00
2023-03-12T03:00:32.168Z,100544.00
2023-03-12T03:03:00.036Z,100550.00
2023-03-12T03:05:26.815Z,100538.00
2023-03-12T03:07:53.614Z,100546.00
2023-03-12T03:10:20.327Z,100547.00
2023-03-12T03:12:47.109Z,100545.00
2023-03-12T03:15:13.894Z,100556.00
2023-03-12T03:17:40.670Z,100551.00
2023-03-12T03:20:11.127Z,100546.00
2023-03-12T03:22:38.937Z,100552.00
2023-03-12T03:25:07.378Z,100558.00
2023-03-12T03:27:34.195Z,100539.00
2023-03-12T03:30:00.995Z,100553.00
2023-03-12T03:32:28.038Z,100557.00
2023-03-12T03:34:54.818Z,100550.00
2023-03-12T03:37:21.616Z,100546.00
2023-03-12T03:39:48.338Z,100550.00
2023-03-12T03:42:15.065Z,100566.00
2023-03-12T03:44:41.882Z,100545.00
2023-03-12T03:47:08.610Z,100548.00
2023-03-12T03:49:35.335Z,100544.00
2023-03-12T03:52:02.080Z,100566.00
2023-03-12T03:54:31.047Z,100545.00
2023-03-12T03:56:57.775Z,100553.00
2023-03-12T03:59:24.505Z,100551.00
2023-03-12T04:01:51.212Z,100554.00
2023-03-12T04:04:18.123Z,100549.00
2023-03-12T04:06:44.846Z,100548.00
2023-03-12T04:09:11.595Z,100551.00
2023-03-12T04:11:39.116Z,100552.00
2023-03-12T04:14:05.848Z,100541.00
2023-03-12T04:16:32.736Z,100533.00
2023-03-12T04:18:59.523Z,100533.00
2023-03-12T04:21:26.251Z,100544.00
2023-03-12T04:23:53.006Z,100531.00
2023-03-12T04:26:20.333Z,100534.00
2023-03-12T04:28:47.122Z,100521.00
2023-03-12T04:31:13.979Z,100540.00
2023-03-12T04:33:40.966Z,100542.00
2023-03-12T04:36:08.410Z,100529.00
2023-03-12T04:38:35.288Z,100545.00
2023-03-12T04:41:04.833Z,100534.00
2023-03-12T04:43:32.314Z,100537.00
2023-03-12T04:45:59.538Z,100526.00
2023-03-12T04:48:26.888Z,100527.00
2023-03-12T04:50:53.709Z,100535.00
2023-03-12T04:53:21.294Z,100531.00
2023-03-12T04:55:48.072Z,100528.00
2023-03-12T04:58:14.910Z,100533.00
2023-03-12T05:00:41.751Z,100530.00
2023-03-12T05:03:08.949Z,100528.00
2023-03-12T05:05:35.963Z,100529.00
2023-03-12T05:08:03.914Z,100541.00
2023-03-12T05:10:30.644Z,100522.00
2023-03-12T05:12:57.376Z,100530.00
2023-03-12T05:15:24.270Z,100539.00
2023-03-12T05:17:51.048Z,100525.00
2023-03-12T05:20:17.934Z,100537.00
2023-03-12T05:22:44.821Z,100534.00
2023-03-12T05:25:11.799Z,100534.00
2023-03-12T05:27:38.628Z,100528.00
2023-03-12T05:30:07.209Z,100542.00
2023-03-12T05:32:34.068Z,100532.00
2023-03-12T05:35:00.855Z,100535.00
2023-03-12T05:37:27.733Z,100536.00
2023-03-12T05:39:54.895Z,100539.00
2023-03-12T05:42:23.805Z,100542.00
2023-03-12T05:44:51.475Z,100538.00
2023-03-12T05:47:18.578Z,100539.00
2023-03-12T05:49:45.430Z,100545.00
2023-03-12T05:52:12.195Z,100542.00
2023-03-12T05:54:39.063Z,100528.00
2023-03-12T05:57:05.911Z,100526.00
2023-03-12T05:59:34.145Z,100550.00
2023-03-12T06:02:00.927Z,100541.00
2023-03-12T06:04:27.794Z,100547.00
2023-03-12T06:06:54.531Z,100559.00
2023-03-12T06:09:21.275Z,100551.00
2023-03-12T06:11:48.015Z,100553.00
2023-03-12T06:14:14.829Z,100542.00
2023-03-12T06:16:41.661Z,100542.00
2023-03-12T06:19:08.488Z,100546.00
2023-03-12T06:21:36.026Z,100542.00
2023-03-12T06:24:03.143Z,100544.00
2023-03-12T06:26:30.172Z,100549.00
2023-03-12T06:28:57.004Z,100550.00
2023-03-12T06:31:24.133Z,100547.00
2023-03-12T06:33:51.482Z,100544.00
2023-03-12T06:36:18.250Z,100545.00
2023-03-12T06:38:45.198Z,100540.00
2023-03-12T06:41:14.095Z,100539.00
2023-03-12T06:43:43.034Z,100543.00
2023-03-12T06:46:16.864Z,100538.00
2023-03-12T06:48:46.100Z,100541.00
2023-03-12T06:51:14.981Z,100541.00
2023-03-12T06:53:42.601Z,100536.00
2023-03-12T06:56:10.649Z,100521.00
2023-03-12T06:58:37.385Z,100533.00
2023-03-12T07:01:04.335Z,100549.00
2023-03-12T07:03:31.145Z,100544.00
2023-03-12T07:05:58.745Z,100541.00
2023-03-12T07:08:26.581Z,100563.00
2023-03-12T07:10:53.287Z,100557.00
2023-03-12T07:13:20.031Z,100569.00
2023-03-12T07:15:46.902Z,100549.00
2023-03-12T07:18:13.688Z,100560.00
2023-03-12T07:20:42.303Z,100558.00
2023-03-12T07:23:09.535Z,100567.00
2023-03-12T07:25:41.001Z,100557.00
2023-03-12T07:28:08.155Z,100554.00
2023-03-12T07:30:35.209Z,100566.00
2023-03-12T07:33:07.136Z,100556.00
2023-03-12T07:35:34.267Z,100559.00
2023-03-12T07:38:02.030Z,100549.00
2023-03-12T07:40:29.096Z,100555.00
2023-03-12T07:42:55.807Z,100562.00
2023-03-12T07:45:22.874Z,100554.00
2023-03-12T07:47:49.845Z,100546.00
2023-03-12T07:50:17.852Z,100547.00
2023-03-12T07:52:45.626Z,100557.00
2023-03-12T07:55:12.689Z,100553.00
2023-03-12T07:57:40.015Z,100568.00
2023-03-12T08:00:08.685Z,100567.00
2023-03-12T08:02:35.913Z,100569.00
2023-03-12T08:05:02.965Z,100567.00
2023-03-12T08:07:32.927Z,100567.00
2023-03-12T08:10:00.537Z,100563.00
2023-03-12T08:12:28.305Z,100558.00
2023-03-12T08:14:55.205Z,100571.00
2023-03-12T08:17:21.951Z,100569.00
2023-03-12T08:19:48.754Z,100564.00
2023-03-12T08:22:15.755Z,100571.00
2023-03-12T08:24:42.836Z,100567.00
2023-03-12T08:27:12.015Z,100572.00
2023-03-12T08:29:39.834Z,100561.00
2023-03-12T08:32:12.798Z,100572.00
2023-03-12T08:34:39.771Z,100564.00
2023-03-12T08:37:06.540Z,100566.00
2023-03-12T08:39:33.405Z,100560.00
2023-03-12T08:42:00.255Z,100563.00
2023-03-12T08:44:27.347Z,100555.00
2023-03-12T08:46:54.138Z,100553.00
2023-03-12T08:49:21.736Z,100547.00
2023-03-12T08:51:49.106Z,100556.00
2023-03-12T08:54:15.838Z,100537.00
2023-03-12T08:56:43.654Z,100540.00
2023-03-12T08:59:11.744Z,100530.00
2023-03-12T09:01:40.635Z,100542.00
2023-03-12T09:04:09.076Z,100528.00
2023-03-12T09:06:36.133Z,100527.00
2023-03-12T09:09:05.881Z,100521.00
2023-03-12T09:11:34.018Z,100522.00
2023-03-12T09:14:46.276Z,100519.00
2023-03-12T09:16:49.173Z,100512.00
2023-03-12T09:19:16.152Z,100518.00
2023-03-12T09:21:42.928Z,100500.00
2023-03-12T09:24:10.268Z,100500.00
2023-03-12T09:26:37.040Z,100512.00
2023-03-12T09:29:03.767Z,100515.00
2023-03-12T09:31:30.568Z,100502.00
2023-03-12T09:33:58.905Z,100499.00
2023-03-12T09:36:25.683Z,100486.00
2023-03-12T09:38:52.403Z,100497.00
2023-03-12T09:41:35.320Z,100493.00
2023-03-12T09:44:07.885Z,100480.00
2023-03-12T09:47:17.400Z,100486.00
2023-03-12T09:53:35.809Z,100497.00
2023-03-12T09:56:09.165Z,100485.00
2023-03-12T09:58:38.368Z,100483.00
2023-03-12T10:01:39.057Z,100466.00
2023-03-12T10:04:56.335Z,100494.00
2023-03-12T10:07:30.543Z,100477.00
2023-03-12T10:10:15.194Z,100476.00
2023-03-12T10:13:23.155Z,100478.00
2023-03-12T10:16:16.044Z,100485.00
2023-03-12T10:19:24.547Z,100477.00
2023-03-12T10:21:57.339Z,100473.00
2023-03-12T10:24:51.131Z,100465.00
2023-03-12T10:27:18.972Z,100454.00
2023-03-12T10:29:48.502Z,100443.00
2023-03-12T10:32:27.438Z,100445.00
2023-03-12T10:35:12.912Z,100452.00
2023-03-12T10:37:43.652Z,100444.00
2023-03-12T10:40:19.665Z,100438.00
2023-03-12T10:42:46.685Z,100438.00
2023-03-12T10:45:26.954Z,100426.00
2023-03-12T10:47:57.346Z,100433.00
2023-03-12T10:50:32.507Z,100442.00
2023-03-12T10:53:29.573Z,100447.00
2023-03-12T10:56:05.316Z,100435.00
2023-03-12T10:58:35.046Z,100436.00
2023-03-12T11:01:03.692Z,100448.00
2023-03-12T11:03:31.220Z,100425.00
2023-03-12T11:06:03.130Z,100443.00
2023-03-12T11:08:32.478Z,100433.00
2023-03-12T11:11:00.642Z,100434.00
2023-03-12T11:13:38.127Z,100434.00
2023-03-12T11:16:17.169Z,100433.00
2023-03-12T11:19:05.047Z,100431.00
2023-03-12T11:21:36.997Z,100441.00
2023-03-12T11:24:11.627Z,100437.00
2023-03-12T11:26:48.553Z,100427.00
2023-03-12T11:29:48.570Z,100422.00
2023-03-12T11:32:18.706Z,100417.00
2023-03-12T11:34:49.691Z,100403.00
2023-03-12T11:38:01.693Z,100418.00
2023-03-12T11:41:13.155Z,100404.00
2023-03-12T11:43:44.298Z,100422.00
2023-03-12T11:46:30.039Z,100411.00
2023-03-12T11:49:09.030Z,100415.00
2023-03-12T11:52:08.161Z,100420.00
2023-03-12T11:54:37.759Z,100421.00
2023-03-12T11:57:18.084Z,100401.00
2023-03-12T12:00:14.164Z,100384.00
2023-03-12T12:02:48.342Z,100383.00
2023-03-12T12:05:37.089Z,100415.00
2023-03-12T12:08:16.206Z,100424.00
2023-03-12T12:11:13.402Z,100424.00
2023-03-12T12:14:01.143Z,100397.00
2023-03-12T12:16:42.846Z,100407.00
2023-03-12T12:19:50.832Z,100415.00
2023-03-12T12:22:52.240Z,100415.00
2023-03-12T12:25:31.081Z,100421.00
2023-03-12T12:28:47.950Z,100424.00
2023-03-12T12:31:29.068Z,100433.00
2023-03-12T12:34:07.603Z,100437.00
2023-03-12T12:36:36.007Z,100421.00
2023-03-12T12:39:15.963Z,100407.00
2023-03-12T12:41:47.823Z,100393.00
2023-03-12T12:44:18.804Z,100394.00
2023-03-12T12:46:52.409Z,100403.00
2023-03-12T12:49:43.851Z,100401.00
2023-03-12T12:52:20.115Z,100375.00
2023-03-12T12:55:16.827Z,100379.00
2023-03-12T12:57:54.572Z,100354.00
2023-03-12T13:00:38.054Z,100371.00
2023-03-12T13:03:04.902Z,100363.00
2023-03-12T13:05:37.627Z,100376.00
2023-03-12T13:08:05.462Z,100373.00
2023-03-12T13:10:35.154Z,100353.00
2023-03-12T13:13:27.907Z,100369.00
2023-03-12T13:16:17.179Z,100362.00
2023-03-12T13:18:56.937Z,100355.00
2023-03-12T13:21:30.883Z,100350.00
2023-03-12T13:24:10.623Z,100320.00
2023-03-12T13:26:50.734Z,100330.00
2023-03-12T13:29:35.959Z,100319.00
2023-03-12T13:32:03.560Z,100311.00
2023-03-12T13:34:51.926Z,100292.00
2023-03-12T13:37:30.487Z,100297.00
2023-03-12T13:40:01.886Z,100296.00
2023-03-12T13:42:40.418Z,100288.00
2023-03-12T13:45:26.315Z,100288.00
2023-03-12T13:47:57.068Z,100286.00
2023-03-12T13:50:23.944Z,100257.00
2023-03-12T13:53:03.029Z,100261.00
2023-03-12T13:55:46.772Z,100239.00
2023-03-12T13:58:23.507Z,100227.00
2023-03-12T14:01:00.591Z,100229.00
2023-03-12T14:03:43.778Z,100231.00
2023-03-12T14:06:24.923Z,100229.00
2023-03-12T14:09:09.898Z,100228.00
2023-03-12T14:11:47.148Z,100250.00
2023-03-12T14:14:28.974Z,100220.00
2023-03-12T14:17:01.695Z,100214.00
2023-03-12T14:19:35.868Z,100219.00
2023-03-12T14:22:05.316Z,100210.00
2023-03-12T14:24:35.292Z,100207.00
2023-03-12T14:27:04.553Z,100199.00
2023-03-12T14:29:43.169Z,100198.00
2023-03-12T14:32:22.500Z,100188.00
2023-03-12T14:35:16.681Z,100183.00
2023-03-12T14:38:06.805Z,100175.00
2023-03-12T14:40:47.119Z,100164.00
2023-03-12T14:43:41.487Z,100171.00
2023-03-12T14:46:19.995Z,100161.00
2023-03-12T14:48:52.172Z,100138.00
2023-03-12T14:51:30.358Z,100128.00
2023-03-12T14:54:01.680Z,100117.00
2023-03-12T14:56:32.958Z,100094.00
2023-03-12T14:59:02.725Z,100092.00
2023-03-12T15:01:34.485Z,100083.00
2023-03-12T15:04:04.453Z,100097.00
2023-03-12T15:06:37.490Z,100062.00
2023-03-12T15:09:06.626Z,100062.00
2023-03-12T15:11:35.913Z,100059.00
2023-03-12T15:14:08.842Z,100049.00
2023-03-12T15:16:36.153Z,100044.00
2023-03-12T15:19:04.210Z,100045.00
2023-03-12T15:21:35.211Z,100043.00
2023-03-12T15:24:06.241Z,100044.00
2023-03-12T15:26:38.108Z,100053.00
2023-03-12T15:29:14.101Z,100060.00
2023-03-12T15:31:42.555Z,100050.00
2023-03-12T15:34:12.699Z,100050.00
2023-03-12T15:36:48.521Z,100033.00
2023-03-12T15:39:29.717Z,100018.00
2023-03-12T15:42:00.455Z,100016.00
2023-03-12T15:44:29.794Z,100017.00
2023-03-12T15:47:02.835Z,100027.00
2023-03-12T15:49:35.797Z,100019.00
2023-03-12T15:52:07.724Z,100025.00
2023-03-12T15:54:36.147Z,100019.00
2023-03-12T15:57:24.167Z,100021.00
2023-03-12T16:00:12.005Z,100007.00
2023-03-12T16:02:42.471Z,100001.00
2023-03-12T16:05:09.259Z,99999.00
2023-03-12T16:07:36.145Z,99995.00
2023-03-12T16:10:03.350Z,99987.00
2023-03-12T16:12:33.485Z,99966.00
2023-03-12T16:15:00.236Z,99962.00
2023-03-12T16:17:27.029Z,99948.00
2023-03-12T16:19:53.796Z,99946.00
2023-03-12T16:22:22.403Z,99961.00
2023-03-12T16:25:09.600Z,99954.00
2023-03-12T16:27:39.130Z,99935.00
2023-03-12T16:30:22.755Z,99939.00
2023-03-12T16:32:49.746Z,99927.00
2023-03-12T16:35:18.708Z,99944.00
2023-03-12T16:37:46.181Z,99931.00
2023-03-12T16:40:16.315Z,99926.00
2023-03-12T16:42:50.379Z,99915.00
2023-03-12T16:45:18.526Z,99916.00
2023-03-12T16:47:45.370Z,99927.00
2023-03-12T16:50:22.604Z,99923.00
2023-03-12T16:52:54.046Z,99903.00
2023-03-12T16:55:22.702Z,99907.00
2023-03-12T16:57:53.013Z,99918.00
2023-03-12T17:00:26.303Z,99914.00
2023-03-12T17:02:57.798Z,99928.00
2023-03-12T17:05:29.179Z,99918.00
2023-03-12T17:07:56.819Z,99906.00
2023-03-12T17:10:24.189Z,99902.00
2023-03-12T17:12:51.518Z,99884.00
2023-03-12T17:15:28.681Z,99885.00
2023-03-12T17:17:55.735Z,99891.00
2023-03-12T17:20:24.118Z,99895.00
2023-03-12T17:23:09.228Z,99888.00
2023-03-12T17:25:38.913Z,99892.00
2023-03-12T17:28:06.300Z,99897.00
2023-03-12T17:30:34.420Z,99894.00
2023-03-12T17:33:18.758Z,99886.00
2023-03-12T17:35:45.891Z,99885.00
2023-03-12T17:38:13.114Z,99876.00
2023-03-12T17:40:42.035Z,99883.00
2023-03-12T17:43:08.845Z,99885.00
2023-03-12T17:45:36.998Z,99898.00
2023-03-12T17:48:04.170Z,99895.00
2023-03-12T17:50:31.045Z,99896.00
2023-03-12T17:52:57.774Z,99896.00
2023-03-12T17:55:24.514Z,99875.00
2023-03-12T17:57:51.269Z,99876.00
2023-03-12T18:00:18.529Z,99889.00
2023-03-12T18:02:45.302Z,99899.00
2023-03-12T18:05:12.181Z,99881.00
2023-03-12T18:07:39.219Z,99891.00
2023-03-12T18:10:07.806Z,99881.00
2023-03-12T18:12:35.122Z,99865.00
2023-03-12T18:15:01.947Z,99875.00
2023-03-12T18:17:28.666Z,99883.00
2023-03-12T18:19:55.429Z,99864.00
2023-03-12T18:22:22.238Z,99860.00
2023-03-12T18:24:49.044Z,99854.00
2023-03-12T18:27:15.819Z,99852.00
2023-03-12T18:29:42.614Z,99854.00
2023-03-12T18:32:09.425Z,99852.00
2023-03-12T18:34:37.541Z,99849.00
2023-03-12T18:37:04.374Z,99855.00
2023-03-12T18:39:31.312Z,99854.00
2023-03-12T18:41:58.123Z,99836.00
2023-03-12T18:44:24.932Z,99833.00
2023-03-12T18:46:51.969Z,99836.00
2023-03-12T18:49:20.573Z,99837.00
2023-03-12T18:51:47.533Z,99830.00
2023-03-12T18:54:14.739Z,99827.00
2023-03-12T18:56:41.500Z,99834.00
2023-03-12T18:59:09.838Z,99831.00
2023-03-12T19:01:37.056Z,99823.00
2023-03-12T19:04:04.059Z,99818.00
2023-03-12T19:06:40.839Z,99826.00
2023-03-12T19:09:14.755Z,99804.00
2023-03-12T19:11:41.495Z,99817.00
2023-03-12T19:14:08.230Z,99813.00
2023-03-12T19:16:35.048Z,99807.00
2023-03-12T19:19:01.827Z,99817.00
2023-03-12T19:21:28.692Z,99812.00
2023-03-12T19:23:55.450Z,99798.00
2023-03-12T19:26:22.478Z,99809.00
2023-03-12T19:28:49.272Z,99801.00
2023-03-12T19:31:16.167Z,99802.00
2023-03-12T19:39:15.222Z,99817.00
2023-03-12T19:41:50.537Z,99805.00
2023-03-12T19:44:17.453Z,99794.00
2023-03-12T19:46:44.323Z,99791.00
2023-03-12T19:49:11.182Z,99806.00
2023-03-12T19:51:40.190Z,99810.00
2023-03-12T19:54:07.696Z,99809.00
2023-03-12T19:56:34.544Z,99808.00
2023-03-12T19:59:01.344Z,99785.00
2023-03-12T20:01:28.187Z,99794.00
2023-03-12T20:03:56.237Z,99790.00
2023-03-12T20:06:23.142Z,99779.00
2023-03-12T20:08:50.119Z,99796.00
2023-03-12T20:11:17.027Z,99785.00
2023-03-12T20:13:43.925Z,99795.00
2023-03-12T20:16:13.216Z,99788.00
2023-03-12T20:18:40.115Z,99800.00
